Terminal Aerodrome Forecast
Issued by NWS

Home | Current Version | Previous Version | Text Only | Print | Product List | Glossary On
Versions: 1 2 3 4 5 6 7 8 9 10 11 12 13 14 15 16 17 18 19 20
000
FTUS45 KVEF 260520
TAFHND
TAF
KHND 260520Z 2606/2706 26012KT P6SM SCT120 SCT200
     FM260700 32010G20KT P6SM FEW120
     FM261500 35018G28KT P6SM FEW250=

USA.gov is the U.S. government's official web portal to all federal, state and local government web resources and services.